createdAt,value
2023-06-11T00:01:31.148Z,13.74
2023-06-11T00:03:58.554Z,13.61
2023-06-11T00:06:25.618Z,13.48
2023-06-11T00:08:53.942Z,13.44
2023-06-11T00:11:22.579Z,13.59
2023-06-11T00:13:50.684Z,13.65
2023-06-11T00:16:18.190Z,13.62
2023-06-11T00:18:44.911Z,13.68
2023-06-11T00:21:13.623Z,13.74
2023-06-11T00:23:40.477Z,13.70
2023-06-11T00:26:10.834Z,13.74
2023-06-11T00:28:37.602Z,13.65
2023-06-11T00:31:07.510Z,13.46
2023-06-11T00:33:34.420Z,13.40
2023-06-11T00:36:01.969Z,13.53
2023-06-11T00:38:30.173Z,13.52
2023-06-11T00:40:57.011Z,13.56
2023-06-11T00:43:25.024Z,13.53
2023-06-11T00:45:52.438Z,13.64
2023-06-11T00:48:23.365Z,13.65
2023-06-11T00:50:51.573Z,13.60
2023-06-11T00:53:20.126Z,13.63
2023-06-11T00:55:47.330Z,13.51
2023-06-11T00:58:16.615Z,13.56
2023-06-11T01:00:46.720Z,13.60
2023-06-11T01:03:18.678Z,13.47
2023-06-11T01:06:03.871Z,13.25
2023-06-11T01:08:40.471Z,13.33
2023-06-11T01:11:22.648Z,13.43
2023-06-11T01:13:49.774Z,13.40
2023-06-11T01:16:38.479Z,13.44
2023-06-11T01:19:30.855Z,13.44
2023-06-11T01:22:35.068Z,13.40
2023-06-11T01:25:26.436Z,13.46
2023-06-11T01:28:05.712Z,13.55
2023-06-11T01:30:39.078Z,13.52
2023-06-11T01:33:15.537Z,13.51
2023-06-11T01:35:43.232Z,13.57
2023-06-11T01:38:10.209Z,13.47
2023-06-11T01:40:37.218Z,13.27
2023-06-11T01:43:03.931Z,13.39
2023-06-11T01:45:38.461Z,13.30
2023-06-11T01:48:06.566Z,13.39
2023-06-11T01:50:34.573Z,13.43
2023-06-11T01:53:01.934Z,13.42
2023-06-11T01:55:28.645Z,13.43
2023-06-11T01:57:55.301Z,13.47
2023-06-11T02:00:22.160Z,13.41
2023-06-11T02:02:49.890Z,13.30
2023-06-11T02:05:16.969Z,13.13
2023-06-11T02:07:43.756Z,13.15
2023-06-11T02:10:11.121Z,12.99
2023-06-11T02:12:44.755Z,13.20
2023-06-11T02:15:14.904Z,13.28
2023-06-11T02:17:43.141Z,13.30
2023-06-11T02:20:10.437Z,13.36
2023-06-11T02:22:37.169Z,13.37
2023-06-11T02:25:04.382Z,13.35
2023-06-11T02:27:31.304Z,13.36
2023-06-11T02:29:58.522Z,13.41
2023-06-11T02:32:25.476Z,13.44
2023-06-11T02:34:52.245Z,13.49
2023-06-11T02:37:19.093Z,13.50
2023-06-11T02:39:46.469Z,13.50
2023-06-11T02:42:13.284Z,13.47
2023-06-11T02:44:41.026Z,13.39
2023-06-11T02:47:13.750Z,13.25
2023-06-11T02:49:40.458Z,13.26
2023-06-11T02:52:07.935Z,13.26
2023-06-11T02:54:34.654Z,13.32
2023-06-11T02:57:01.508Z,13.29
2023-06-11T02:59:28.228Z,13.37
2023-06-11T03:01:56.126Z,13.45
2023-06-11T03:04:23.088Z,13.46
2023-06-11T03:06:49.858Z,13.33
2023-06-11T03:09:16.606Z,13.23
2023-06-11T03:11:43.316Z,13.20
2023-06-11T03:14:10.202Z,13.37
2023-06-11T03:16:37.088Z,13.46
2023-06-11T03:19:03.894Z,12.93
2023-06-11T03:21:30.955Z,13.44
2023-06-11T03:23:57.838Z,13.56
2023-06-11T03:26:25.625Z,13.62
2023-06-11T03:28:57.444Z,13.70
2023-06-11T03:31:24.335Z,13.80
2023-06-11T03:33:51.128Z,13.73
2023-06-11T03:36:17.906Z,13.69
2023-06-11T03:38:44.637Z,13.76
2023-06-11T03:41:11.363Z,13.48
2023-06-11T03:43:38.117Z,13.48
2023-06-11T03:46:04.879Z,13.58
2023-06-11T03:48:31.630Z,13.72
2023-06-11T03:50:58.426Z,13.64
2023-06-11T03:53:25.160Z,13.82
2023-06-11T03:55:51.840Z,13.76
2023-06-11T03:58:18.606Z,13.70
2023-06-11T04:00:45.493Z,13.86
2023-06-11T04:03:12.286Z,13.96
2023-06-11T04:05:39.120Z,14.04
2023-06-11T04:08:05.964Z,14.14
2023-06-11T04:10:33.262Z,14.22
2023-06-11T04:13:00.245Z,14.14
2023-06-11T04:15:27.149Z,14.16
2023-06-11T04:17:54.036Z,14.10
2023-06-11T04:20:21.134Z,14.01
2023-06-11T04:22:47.795Z,14.13
2023-06-11T04:25:15.072Z,13.95
2023-06-11T04:27:41.863Z,14.02
2023-06-11T04:30:10.334Z,14.33
2023-06-11T04:32:38.383Z,14.37
2023-06-11T04:35:05.875Z,14.62
2023-06-11T04:37:39.222Z,14.77
2023-06-11T04:40:10.917Z,14.83
2023-06-11T04:42:43.724Z,14.85
2023-06-11T04:45:12.097Z,15.11
2023-06-11T04:47:39.556Z,15.18
2023-06-11T04:50:07.673Z,15.39
2023-06-11T04:52:44.480Z,15.45
2023-06-11T04:55:13.501Z,15.55
2023-06-11T04:57:40.790Z,15.67
2023-06-11T05:00:09.731Z,15.69
2023-06-11T05:02:38.675Z,15.52
2023-06-11T05:05:09.050Z,15.57
2023-06-11T05:07:36.529Z,15.66
2023-06-11T05:10:03.726Z,15.62
2023-06-11T05:12:36.999Z,15.53
2023-06-11T05:15:03.968Z,15.56
2023-06-11T05:17:30.729Z,15.76
2023-06-11T05:19:57.620Z,15.91
2023-06-11T05:22:24.428Z,16.05
2023-06-11T05:24:51.317Z,16.06
2023-06-11T05:27:18.698Z,16.36
2023-06-11T05:29:46.490Z,16.43
2023-06-11T05:32:16.097Z,16.07
2023-06-11T05:34:43.254Z,16.12
2023-06-11T05:37:10.347Z,16.28
2023-06-11T05:39:37.060Z,16.35
2023-06-11T05:42:03.951Z,16.62
2023-06-11T05:44:30.654Z,16.73
2023-06-11T05:46:57.587Z,16.53
2023-06-11T05:49:25.626Z,16.65
2023-06-11T05:51:52.325Z,16.89
2023-06-11T05:54:19.028Z,16.93
2023-06-11T05:56:46.310Z,16.92
2023-06-11T05:59:13.041Z,17.05
2023-06-11T06:01:39.793Z,17.25
2023-06-11T06:04:07.228Z,17.35
2023-06-11T06:06:34.646Z,17.50
2023-06-11T06:09:01.389Z,17.58
2023-06-11T06:11:28.136Z,17.39
2023-06-11T06:13:55.246Z,17.59
2023-06-11T06:16:21.992Z,17.64
2023-06-11T06:18:48.705Z,17.76
2023-06-11T06:21:15.468Z,17.90
2023-06-11T06:23:42.209Z,17.98
2023-06-11T06:26:09.147Z,18.10
2023-06-11T06:28:36.800Z,18.13
2023-06-11T06:31:03.986Z,18.14
2023-06-11T06:33:35.258Z,17.87
2023-06-11T06:36:04.022Z,18.11
2023-06-11T06:38:32.490Z,18.44
2023-06-11T06:40:59.254Z,18.47
2023-06-11T06:43:25.939Z,18.48
2023-06-11T06:45:52.654Z,18.28
2023-06-11T06:48:19.616Z,18.30
2023-06-11T06:50:46.465Z,18.63
2023-06-11T06:53:13.241Z,18.58
2023-06-11T06:55:40.077Z,18.83
2023-06-11T06:58:15.510Z,18.83
2023-06-11T07:00:42.339Z,19.00
2023-06-11T07:03:10.435Z,19.27
2023-06-11T07:05:37.210Z,19.51
2023-06-11T07:08:04.274Z,19.70
2023-06-11T07:10:31.505Z,19.82
2023-06-11T07:13:00.624Z,19.94
2023-06-11T07:15:27.743Z,19.88
2023-06-11T07:17:54.542Z,19.89
2023-06-11T07:20:22.546Z,19.96
2023-06-11T07:22:49.378Z,20.21
2023-06-11T07:25:16.736Z,20.26
2023-06-11T07:27:44.209Z,20.09
2023-06-11T07:30:12.012Z,20.31
2023-06-11T07:32:38.912Z,20.23
2023-06-11T07:35:05.957Z,20.21
2023-06-11T07:37:33.376Z,20.35
2023-06-11T07:40:00.105Z,20.26
2023-06-11T07:42:27.058Z,20.23
2023-06-11T07:44:53.793Z,20.27
2023-06-11T07:47:20.857Z,19.89
2023-06-11T07:49:47.798Z,20.21
2023-06-11T07:52:14.522Z,20.42
2023-06-11T07:54:41.234Z,20.34
2023-06-11T07:57:10.993Z,20.33
2023-06-11T07:59:38.380Z,20.27
2023-06-11T08:02:06.141Z,20.04
2023-06-11T08:04:33.330Z,20.55
2023-06-11T08:07:00.180Z,20.57
2023-06-11T08:09:29.982Z,20.86
2023-06-11T08:11:57.719Z,21.59
2023-06-11T08:14:24.416Z,22.18
2023-06-11T08:16:51.390Z,22.61
2023-06-11T08:19:18.133Z,23.11
2023-06-11T08:21:44.829Z,23.13
2023-06-11T08:24:12.166Z,22.12
2023-06-11T08:26:38.978Z,21.95
2023-06-11T08:29:05.946Z,21.94
2023-06-11T08:31:33.645Z,21.31
2023-06-11T08:34:00.536Z,21.00
2023-06-11T08:36:27.320Z,21.18
2023-06-11T08:38:54.018Z,21.31
2023-06-11T08:41:21.146Z,21.60
2023-06-11T08:43:48.099Z,21.84
2023-06-11T08:46:16.167Z,21.18
2023-06-11T08:48:45.106Z,21.04
2023-06-11T08:51:13.662Z,21.28
2023-06-11T08:53:40.984Z,20.67
2023-06-11T08:56:08.373Z,20.89
2023-06-11T08:58:36.408Z,21.35
2023-06-11T09:01:10.562Z,21.72
2023-06-11T09:03:39.683Z,21.66
2023-06-11T09:06:06.463Z,21.50
2023-06-11T09:08:34.833Z,21.30
2023-06-11T09:11:02.072Z,21.57
2023-06-11T09:13:29.217Z,21.64
2023-06-11T09:15:59.294Z,21.78
2023-06-11T09:18:28.281Z,21.84
2023-06-11T09:20:57.237Z,22.13
2023-06-11T09:23:30.975Z,22.22
2023-06-11T09:26:00.789Z,22.38
2023-06-11T09:28:32.996Z,22.40
2023-06-11T09:31:01.462Z,22.14
2023-06-11T09:33:30.025Z,22.24
2023-06-11T09:35:56.812Z,22.05
2023-06-11T09:38:23.513Z,22.04
2023-06-11T09:40:52.141Z,21.49
2023-06-11T09:43:25.556Z,21.36
2023-06-11T09:45:54.322Z,21.32
2023-06-11T09:48:22.076Z,21.10
2023-06-11T09:50:51.083Z,20.77
2023-06-11T09:53:20.472Z,20.75
2023-06-11T09:56:05.314Z,20.63
2023-06-11T09:58:38.221Z,19.97
2023-06-11T10:01:07.357Z,19.42
2023-06-11T10:03:34.764Z,19.60
2023-06-11T10:06:06.953Z,19.81
2023-06-11T10:08:37.037Z,19.99
2023-06-11T10:11:05.360Z,20.05
2023-06-11T10:13:36.200Z,20.23
2023-06-11T10:16:04.461Z,20.48
2023-06-11T10:18:31.808Z,20.40
2023-06-11T10:21:04.083Z,20.64
2023-06-11T10:23:41.639Z,20.37
2023-06-11T10:26:11.104Z,20.65
2023-06-11T10:28:42.964Z,20.42
2023-06-11T10:31:09.630Z,20.20
2023-06-11T10:33:46.598Z,20.32
2023-06-11T10:36:26.637Z,20.18
2023-06-11T10:39:09.896Z,20.36
2023-06-11T10:41:40.701Z,20.81
2023-06-11T10:44:08.613Z,20.94
2023-06-11T10:46:50.568Z,21.03
2023-06-11T10:49:18.334Z,20.23
2023-06-11T10:51:47.549Z,21.15
2023-06-11T10:54:28.064Z,21.74
2023-06-11T10:56:55.879Z,21.96
2023-06-11T10:59:23.906Z,21.80
2023-06-11T11:01:54.502Z,21.49
2023-06-11T11:04:22.784Z,21.31
2023-06-11T11:06:54.038Z,21.51
2023-06-11T11:09:24.208Z,21.48
2023-06-11T11:11:54.211Z,20.98
2023-06-11T11:14:21.083Z,21.22
2023-06-11T11:16:48.937Z,21.05
2023-06-11T11:19:17.017Z,21.50
2023-06-11T11:21:52.088Z,21.79
2023-06-11T11:24:20.206Z,22.03
2023-06-11T11:26:47.217Z,22.13
2023-06-11T11:29:14.658Z,22.37
2023-06-11T11:31:42.312Z,21.43
2023-06-11T11:34:09.186Z,21.59
2023-06-11T11:36:36.686Z,21.67
2023-06-11T11:39:11.965Z,21.68
2023-06-11T11:42:08.439Z,21.80
2023-06-11T11:44:42.574Z,22.01
2023-06-11T11:47:10.674Z,21.90
2023-06-11T11:49:39.611Z,21.89
2023-06-11T11:52:07.776Z,21.87
2023-06-11T11:54:34.626Z,22.04
2023-06-11T11:57:07.993Z,21.82
2023-06-11T11:59:39.261Z,22.09
2023-06-11T12:02:06.382Z,21.96
2023-06-11T12:04:40.042Z,21.80
2023-06-11T12:07:08.181Z,21.87
2023-06-11T12:09:39.934Z,22.07
2023-06-11T12:12:08.416Z,21.96
2023-06-11T12:14:35.994Z,22.16
2023-06-11T12:19:31.216Z,22.21
2023-06-11T12:21:58.049Z,22.84
2023-06-11T12:24:25.552Z,22.88
2023-06-11T12:26:55.343Z,22.69
2023-06-11T12:29:22.036Z,23.18
2023-06-11T12:31:48.974Z,23.68
2023-06-11T12:34:17.007Z,23.74
2023-06-11T12:36:47.897Z,23.69
2023-06-11T12:39:17.801Z,23.13
2023-06-11T12:41:45.945Z,22.45
2023-06-11T12:44:12.708Z,22.55
2023-06-11T12:46:39.587Z,22.58
2023-06-11T12:49:06.313Z,22.56
2023-06-11T12:51:33.087Z,22.96
2023-06-11T12:53:59.816Z,23.37
2023-06-11T12:56:30.106Z,23.48
2023-06-11T12:58:56.826Z,23.05
2023-06-11T13:01:23.733Z,22.88
2023-06-11T13:03:50.528Z,23.18
2023-06-11T13:06:17.256Z,23.09
2023-06-11T13:08:44.193Z,22.55
2023-06-11T13:11:11.513Z,22.94
2023-06-11T13:13:38.346Z,22.67
2023-06-11T13:16:05.384Z,22.70
2023-06-11T13:18:32.403Z,22.64
2023-06-11T13:21:00.424Z,22.50
2023-06-11T13:23:32.487Z,22.57
2023-06-11T13:26:10.151Z,22.56
2023-06-11T13:28:37.346Z,22.44
2023-06-11T13:31:06.137Z,22.43
2023-06-11T13:33:32.868Z,22.44
2023-06-11T13:35:59.761Z,22.49
2023-06-11T13:38:26.454Z,22.59
2023-06-11T13:40:53.306Z,22.38
2023-06-11T13:43:21.096Z,22.32
2023-06-11T13:45:48.239Z,22.54
2023-06-11T13:48:16.766Z,22.50
2023-06-11T13:50:51.602Z,22.13
2023-06-11T13:53:22.582Z,22.00
2023-06-11T13:55:49.420Z,21.99
2023-06-11T13:58:16.544Z,21.93
2023-06-11T14:00:44.240Z,21.84
2023-06-11T14:03:12.035Z,21.47
2023-06-11T14:05:38.843Z,21.21
2023-06-11T14:08:06.032Z,21.36
2023-06-11T14:10:42.134Z,21.33
2023-06-11T14:13:08.788Z,21.24
2023-06-11T14:15:35.768Z,21.09
2023-06-11T14:18:02.811Z,21.34
2023-06-11T14:20:29.654Z,21.54
2023-06-11T14:22:56.319Z,21.60
2023-06-11T14:25:23.059Z,21.63
2023-06-11T14:27:49.743Z,21.46
2023-06-11T14:30:16.462Z,21.35
2023-06-11T14:32:43.258Z,21.36
2023-06-11T14:35:10.021Z,21.39
2023-06-11T14:37:36.713Z,21.58
2023-06-11T14:40:09.272Z,21.08
2023-06-11T14:42:36.252Z,20.99
2023-06-11T14:45:03.828Z,20.97
2023-06-11T14:47:30.808Z,20.85
2023-06-11T14:49:57.542Z,21.17
2023-06-11T14:52:24.229Z,21.40
2023-06-11T14:54:50.993Z,21.42
2023-06-11T14:57:20.316Z,21.69
2023-06-11T14:59:47.726Z,21.66
2023-06-11T15:02:15.477Z,21.97
2023-06-11T15:04:44.370Z,21.92
2023-06-11T15:07:33.993Z,22.04
2023-06-11T15:10:04.771Z,22.01
2023-06-11T15:12:31.850Z,21.57
2023-06-11T15:15:01.346Z,21.66
2023-06-11T15:17:31.079Z,21.55
2023-06-11T15:19:59.866Z,21.46
2023-06-11T15:22:26.922Z,21.29
2023-06-11T15:24:53.648Z,21.28
2023-06-11T15:27:20.381Z,20.85
2023-06-11T15:29:47.180Z,20.88
2023-06-11T15:32:20.934Z,20.68
2023-06-11T15:34:48.323Z,20.82
2023-06-11T15:37:15.175Z,20.72
2023-06-11T15:39:41.902Z,20.63
2023-06-11T15:42:08.666Z,20.43
2023-06-11T15:44:35.563Z,20.32
2023-06-11T15:47:02.341Z,20.10
2023-06-11T15:49:29.414Z,20.14
2023-06-11T15:51:56.062Z,20.10
2023-06-11T15:54:22.816Z,20.14
2023-06-11T15:56:49.571Z,20.13
2023-06-11T15:59:16.535Z,20.26
2023-06-11T16:01:43.854Z,20.19
2023-06-11T16:04:11.000Z,20.22
2023-06-11T16:06:37.943Z,20.01
2023-06-11T16:09:04.718Z,20.11
2023-06-11T16:11:31.619Z,20.22
2023-06-11T16:13:58.407Z,20.08
2023-06-11T16:16:25.247Z,19.95
2023-06-11T16:18:52.067Z,19.91
2023-06-11T16:21:18.989Z,20.07
2023-06-11T16:23:45.930Z,20.13
2023-06-11T16:26:12.654Z,20.27
2023-06-11T16:28:39.347Z,20.09
2023-06-11T16:31:07.366Z,19.89
2023-06-11T16:33:47.765Z,19.79
2023-06-11T16:36:20.861Z,19.45
2023-06-11T16:38:47.673Z,19.41
2023-06-11T16:41:15.793Z,19.41
2023-06-11T16:43:43.439Z,19.27
2023-06-11T16:46:10.416Z,19.33
2023-06-11T16:48:37.231Z,19.36
2023-06-11T16:51:04.090Z,19.22
2023-06-11T16:53:30.939Z,18.82
2023-06-11T16:55:57.671Z,18.63
2023-06-11T16:58:25.245Z,18.48
2023-06-11T17:00:52.560Z,18.47
2023-06-11T17:03:19.471Z,18.40
2023-06-11T17:05:46.418Z,18.44
2023-06-11T17:08:14.417Z,18.33
2023-06-11T17:10:41.539Z,18.21
2023-06-11T17:13:08.318Z,18.03
2023-06-11T17:15:35.172Z,17.89
2023-06-11T17:18:02.010Z,17.90
2023-06-11T17:20:28.838Z,17.68
2023-06-11T17:22:56.588Z,17.66
2023-06-11T17:25:24.787Z,17.56
2023-06-11T17:27:51.789Z,17.31
2023-06-11T17:30:18.995Z,17.18
2023-06-11T17:32:45.784Z,17.05
2023-06-11T17:35:13.017Z,16.86
2023-06-11T17:37:41.007Z,16.86
2023-06-11T17:40:08.386Z,16.52
2023-06-11T17:42:35.228Z,16.55
2023-06-11T17:45:02.046Z,16.45
2023-06-11T17:47:28.881Z,16.46
2023-06-11T17:49:55.713Z,16.32
2023-06-11T17:52:22.461Z,16.13
2023-06-11T17:54:50.407Z,16.12
2023-06-11T17:57:17.212Z,16.12
2023-06-11T17:59:43.901Z,16.15
2023-06-11T18:02:10.694Z,16.11
2023-06-11T18:04:37.576Z,16.04
2023-06-11T18:07:05.281Z,16.06
2023-06-11T18:09:32.060Z,16.02
2023-06-11T18:11:58.772Z,16.10
2023-06-11T18:14:25.604Z,16.04
2023-06-11T18:16:53.553Z,16.15
2023-06-11T18:19:21.071Z,15.99
2023-06-11T18:21:47.878Z,15.89
2023-06-11T18:26:41.817Z,16.02
2023-06-11T18:29:08.568Z,16.14
2023-06-11T18:31:35.963Z,15.95
2023-06-11T18:34:03.077Z,16.12
2023-06-11T18:36:29.754Z,16.25
2023-06-11T18:38:57.692Z,16.27
2023-06-11T18:41:24.491Z,16.28
2023-06-11T18:43:51.216Z,16.31
2023-06-11T18:46:18.010Z,16.33
2023-06-11T18:48:44.739Z,16.07
2023-06-11T18:51:11.610Z,15.74
2023-06-11T18:53:38.334Z,15.71
2023-06-11T18:56:05.906Z,15.79
2023-06-11T18:58:41.162Z,15.72
2023-06-11T19:01:07.983Z,15.78
2023-06-11T19:03:38.737Z,15.78
2023-06-11T19:06:06.769Z,15.89
2023-06-11T19:08:33.492Z,15.90
2023-06-11T19:11:00.318Z,15.86
2023-06-11T19:13:27.062Z,15.70
2023-06-11T19:15:55.119Z,15.60
2023-06-11T19:18:24.197Z,15.47
2023-06-11T19:20:51.013Z,15.39
2023-06-11T19:23:17.989Z,15.25
2023-06-11T19:25:45.077Z,15.15
2023-06-11T19:28:11.953Z,15.08
2023-06-11T19:30:39.845Z,15.01
2023-06-11T19:33:06.683Z,15.10
2023-06-11T19:35:33.759Z,15.11
2023-06-11T19:38:00.620Z,15.24
2023-06-11T19:40:27.349Z,15.14
2023-06-11T19:42:54.043Z,14.98
2023-06-11T19:45:22.275Z,15.02
2023-06-11T19:47:49.232Z,14.98
2023-06-11T19:50:16.489Z,14.93
2023-06-11T19:52:43.403Z,15.04
2023-06-11T19:55:10.538Z,14.88
2023-06-11T19:57:37.828Z,14.93
2023-06-11T20:00:05.132Z,14.81
2023-06-11T20:02:34.106Z,14.88
2023-06-11T20:05:02.174Z,14.93
2023-06-11T20:07:28.994Z,14.90
2023-06-11T20:09:55.704Z,14.86
2023-06-11T20:12:22.395Z,14.89
2023-06-11T20:14:49.195Z,14.74
2023-06-11T20:17:16.607Z,14.63
2023-06-11T20:19:43.354Z,14.66
2023-06-11T20:22:10.167Z,14.61
2023-06-11T20:24:36.979Z,14.69
2023-06-11T20:27:03.756Z,14.59
2023-06-11T20:29:30.662Z,14.73
2023-06-11T20:31:57.380Z,14.54
2023-06-11T20:34:24.114Z,14.50
2023-06-11T20:36:50.983Z,14.48
2023-06-11T20:39:18.452Z,14.37
2023-06-11T20:41:45.124Z,14.39
2023-06-11T20:44:11.876Z,14.36
2023-06-11T20:46:38.711Z,14.30
2023-06-11T20:49:05.741Z,14.43
2023-06-11T20:51:32.607Z,14.49
2023-06-11T20:53:59.336Z,14.55
2023-06-11T20:56:26.137Z,14.73
2023-06-11T20:58:52.867Z,14.75
2023-06-11T21:01:19.660Z,14.75
2023-06-11T21:03:47.512Z,14.76
2023-06-11T21:06:14.311Z,14.58
2023-06-11T21:08:41.143Z,14.54
2023-06-11T21:11:07.834Z,14.43
2023-06-11T21:13:34.574Z,14.35
2023-06-11T21:16:01.326Z,14.36
2023-06-11T21:18:28.105Z,14.28
2023-06-11T21:20:55.904Z,14.34
2023-06-11T21:23:25.449Z,14.37
2023-06-11T21:25:52.153Z,14.38
2023-06-11T21:28:19.254Z,14.35
2023-06-11T21:30:46.785Z,14.33
2023-06-11T21:33:13.702Z,14.30
2023-06-11T21:35:40.404Z,14.04
2023-06-11T21:38:09.394Z,13.77
2023-06-11T21:40:36.052Z,13.83
2023-06-11T21:43:02.819Z,13.87
2023-06-11T21:45:29.849Z,13.76
2023-06-11T21:47:56.739Z,13.79
2023-06-11T21:50:23.607Z,13.42
2023-06-11T21:52:50.869Z,13.52
2023-06-11T21:55:18.096Z,13.64
2023-06-11T21:57:45.144Z,13.65
2023-06-11T22:00:13.708Z,13.64
2023-06-11T22:02:44.489Z,13.53
2023-06-11T22:05:14.574Z,13.40
2023-06-11T22:07:41.720Z,13.36
2023-06-11T22:10:10.002Z,13.33
2023-06-11T22:12:42.971Z,13.29
2023-06-11T22:15:12.454Z,13.25
2023-06-11T22:17:40.710Z,13.24
2023-06-11T22:20:09.530Z,13.24
2023-06-11T22:22:38.938Z,13.14
2023-06-11T22:25:09.176Z,12.87
2023-06-11T22:27:36.559Z,12.76
2023-06-11T22:30:03.725Z,12.60
2023-06-11T22:32:30.575Z,12.64
2023-06-11T22:34:57.416Z,12.73
2023-06-11T22:37:24.252Z,12.71
2023-06-11T22:39:52.215Z,12.74
2023-06-11T22:42:19.588Z,12.64
2023-06-11T22:44:46.268Z,12.53
2023-06-11T22:47:17.562Z,12.64
2023-06-11T22:49:44.313Z,12.47
2023-06-11T22:52:11.124Z,12.55
2023-06-11T22:54:39.483Z,12.61
2023-06-11T22:57:09.471Z,12.64
2023-06-11T22:59:36.239Z,12.63
2023-06-11T23:02:03.137Z,12.72
2023-06-11T23:04:30.120Z,12.70
2023-06-11T23:06:57.008Z,12.34
2023-06-11T23:09:24.502Z,12.45
2023-06-11T23:11:51.543Z,12.33
2023-06-11T23:14:18.232Z,12.34
2023-06-11T23:16:49.310Z,12.30
2023-06-11T23:19:18.698Z,12.43
2023-06-11T23:21:45.829Z,12.41
2023-06-11T23:24:12.867Z,12.53
2023-06-11T23:26:48.747Z,12.57
2023-06-11T23:29:16.402Z,12.58
2023-06-11T23:31:43.768Z,12.68
2023-06-11T23:34:10.917Z,12.67
2023-06-11T23:36:41.072Z,12.42
2023-06-11T23:39:09.695Z,12.55
2023-06-11T23:41:37.385Z,12.45
2023-06-11T23:44:04.625Z,12.40
2023-06-11T23:46:35.078Z,12.36
2023-06-11T23:49:02.255Z,12.46
2023-06-11T23:51:30.759Z,12.31
2023-06-11T23:53:57.666Z,12.53
2023-06-11T23:56:25.610Z,12.42
2023-06-11T23:58:52.616Z,12.57
